US-0153 weather

Medical Center Heliport
Houston, Texas, United States

Public forecast

Using degrees Fahrenheit for public forecast. Weather courtesy of forecast.io.

METAR (pilot weather report)

Closest report is William P Hobby Airport, 7.0 nm (13.0 km) ESE. Retrieved 2019/07/23 13:53 UTC (1 hour ago):

KHOU 231353Z 36011KT 10SM BKN015 BKN045 OVC250 27/23 A3000 RMK AO2 SLP164 T02670228

TAF (pilot weather forecast)

Closest forecast is William P Hobby Airport, 7.0 nm (13.0 km) ESE. Retrieved 2019/07/23 12:24 UTC (3 hours ago):

TAF KHOU 231121Z 2312/2412 27006KT P6SM SCT060 BKN100 BKN250 FM231500 35009KT P6SM VCTS SCT025CB BKN250 FM231800 01013KT P6SM SCT025 BKN035 FM240200 02006KT P6SM SCT250